createdAt,value
2019-05-26T19:28:37.745Z,100305.59
2019-05-26T19:31:10.220Z,100301.30
2019-05-26T19:33:42.265Z,100300.88
2019-05-26T19:36:14.662Z,100310.77
2019-05-26T19:38:47.295Z,100310.40
2019-05-26T19:41:19.070Z,100312.11
2019-05-26T19:43:51.334Z,100311.56
2019-05-26T19:46:23.298Z,100317.91
2019-05-26T19:48:55.718Z,100316.51
2019-05-26T19:51:28.965Z,100321.45
2019-05-26T19:54:01.484Z,100324.83
2019-05-26T19:56:34.227Z,100328.68
2019-05-26T19:59:06.884Z,100291.11
2019-05-26T20:01:38.697Z,100330.73
2019-05-26T20:04:10.708Z,100331.41
2019-05-26T20:06:44.020Z,100335.73
2019-05-26T20:09:16.672Z,100334.84
2019-05-26T20:11:48.967Z,100338.77
2019-05-26T20:14:21.010Z,100338.78
2019-05-26T20:16:54.018Z,100341.16
2019-05-26T20:19:26.741Z,100352.05
2019-05-26T20:21:59.503Z,100363.38
2019-05-26T20:24:32.019Z,100364.20
2019-05-26T20:27:05.065Z,100363.62
2019-05-26T20:29:37.584Z,100371.80
2019-05-26T20:34:45.948Z,100372.06
2019-05-26T20:37:18.572Z,100375.52
2019-05-26T20:39:51.238Z,100369.41
2019-05-26T20:42:23.545Z,100378.31
2019-05-26T20:44:56.065Z,100376.98
2019-05-26T20:47:28.421Z,100380.70
2019-05-26T20:50:00.230Z,100385.25
2019-05-26T20:52:32.459Z,100386.98
2019-05-26T20:55:09.717Z,100382.59
2019-05-26T20:57:44.032Z,100396.73
2019-05-26T21:00:17.528Z,100394.79
2019-05-26T21:02:50.275Z,100392.13
2019-05-26T21:05:22.793Z,100391.77
2019-05-26T21:07:54.673Z,100392.91
2019-05-26T21:10:26.815Z,100396.36
2019-05-26T21:12:58.790Z,100397.08
2019-05-26T21:15:30.858Z,100404.58
2019-05-26T21:18:03.797Z,100400.44
2019-05-26T21:20:36.216Z,100398.99
2019-05-26T21:23:08.100Z,100402.08
2019-05-26T21:25:40.168Z,100395.91
2019-05-26T21:28:12.820Z,100404.29
2019-05-26T21:30:45.285Z,100406.34
2019-05-26T21:33:17.272Z,100401.17
2019-05-26T21:35:49.793Z,100408.98
2019-05-26T21:38:22.295Z,100411.11
2019-05-26T21:40:54.905Z,100407.97
2019-05-26T21:43:27.342Z,100414.08
2019-05-26T21:46:01.094Z,100415.62
2019-05-26T21:48:34.809Z,100417.88
2019-05-26T21:51:07.945Z,100417.52
2019-05-26T21:53:40.988Z,100429.70
2019-05-26T21:56:12.995Z,100424.17
2019-05-26T21:58:45.166Z,100422.75
2019-05-26T22:01:17.635Z,100433.00
2019-05-26T22:03:50.012Z,100425.46
2019-05-26T22:06:22.280Z,100429.48
2019-05-26T22:08:55.081Z,100429.24
2019-05-26T22:11:26.801Z,100427.37
2019-05-26T22:13:59.068Z,100427.51
2019-05-26T22:16:31.912Z,100427.37
2019-05-26T22:19:04.709Z,100431.38
2019-05-26T22:21:36.922Z,100426.67
2019-05-26T22:24:10.339Z,100432.28
2019-05-26T22:26:42.795Z,100433.27
2019-05-26T22:29:15.682Z,100438.70
2019-05-26T22:31:48.354Z,100436.13
2019-05-26T22:34:20.012Z,100440.97
2019-05-26T22:36:52.223Z,100438.09
2019-05-26T22:39:24.793Z,100439.52
2019-05-26T22:41:57.626Z,100438.09
2019-05-26T22:44:29.948Z,100442.55
2019-05-26T22:47:01.984Z,100441.58
2019-05-26T22:49:34.460Z,100447.69
2019-05-26T22:52:06.349Z,100445.55
2019-05-26T22:54:38.452Z,100449.03
2019-05-26T22:57:10.984Z,100458.02
2019-05-26T22:59:43.398Z,100454.70
2019-05-26T23:02:16.150Z,100454.14
2019-05-26T23:04:48.789Z,100456.16
2019-05-26T23:07:21.367Z,100456.01
2019-05-26T23:09:53.793Z,100456.01
2019-05-26T23:12:26.124Z,100453.77
2019-05-26T23:14:59.632Z,100455.34
2019-05-26T23:17:31.553Z,100455.50
2019-05-26T23:20:03.763Z,100457.61
2019-05-26T23:22:36.362Z,100462.67
2019-05-26T23:25:09.671Z,100467.47
2019-05-26T23:27:42.387Z,100459.92
2019-05-26T23:30:15.031Z,100464.14
2019-05-26T23:32:47.554Z,100462.62
2019-05-26T23:35:20.181Z,100464.44
2019-05-26T23:37:52.854Z,100463.98
2019-05-26T23:40:25.391Z,100459.73
2019-05-26T23:42:57.374Z,100462.45
2019-05-26T23:45:29.772Z,100465.77
2019-05-26T23:48:02.498Z,100469.91
2019-05-26T23:50:35.415Z,100463.33
2019-05-26T23:53:08.373Z,100473.91
2019-05-26T23:55:40.773Z,100475.17
2019-05-26T23:58:13.262Z,100473.81
